Time;durP1;ratioP1;P1;durP2;ratioP2;P2;SDS_P1;SDS_P2;PMS_P1;PMS_P2;Temp;Humidity;BMP_temperature;BMP_pressure;BME280_temperature;BME280_humidity;BME280_pressure;Samples;Min_cycle;Max_cycle;Signal;HPM_P1;HPM_P2
2023/02/15 00:01:40;;;;;;;55.13;33.15;;;5.00;99.90;;;;;;5059792;28;20207;-74
2023/02/15 00:04:09;;;;;;;57.85;32.85;;;5.00;99.90;;;;;;5059844;28;20242;-73
2023/02/15 00:06:37;;;;;;;47.05;29.95;;;4.90;99.90;;;;;;5061246;28;20223;-74
2023/02/15 00:09:04;;;;;;;46.13;29.75;;;4.90;99.90;;;;;;5056563;28;20705;-74
2023/02/15 00:11:40;;;;;;;51.50;31.60;;;4.90;99.90;;;;;;5060751;28;20282;-74
2023/02/15 00:14:09;;;;;;;61.08;32.63;;;4.90;99.90;;;;;;5062010;28;20199;-72
2023/02/15 00:16:36;;;;;;;59.85;33.30;;;4.90;99.90;;;;;;5070278;28;20257;-73
2023/02/15 00:19:04;;;;;;;61.92;34.38;;;4.80;99.90;;;;;;5072571;28;20195;-75
2023/02/15 00:21:32;;;;;;;57.95;34.95;;;4.90;99.90;;;;;;5067903;28;20231;-74
2023/02/15 00:24:03;;;;;;;53.53;33.63;;;4.90;99.90;;;;;;5072024;28;20292;-74
2023/02/15 00:26:30;;;;;;;54.75;34.05;;;4.90;99.90;;;;;;5067830;28;20234;-73
2023/02/15 00:28:59;;;;;;;48.22;33.05;;;4.90;99.90;;;;;;5074819;28;20282;-75
2023/02/15 00:31:26;;;;;;;54.25;31.95;;;4.90;99.90;;;;;;5063338;28;20217;-73
2023/02/15 00:33:53;;;;;;;60.08;34.35;;;4.80;99.90;;;;;;5061444;28;20290;-73
2023/02/15 00:36:20;;;;;;;59.28;32.05;;;4.80;99.90;;;;;;5069248;28;20705;-73
2023/02/15 00:38:47;;;;;;;60.35;35.67;;;4.70;99.90;;;;;;5071618;28;20245;-74
2023/02/15 00:41:15;;;;;;;70.78;36.45;;;4.80;99.90;;;;;;5069560;28;20195;-74
2023/02/15 00:43:42;;;;;;;73.28;38.35;;;4.70;99.90;;;;;;5061388;28;20235;-73
2023/02/15 00:46:09;;;;;;;73.93;37.65;;;4.60;99.90;;;;;;5067950;28;20313;-72
2023/02/15 00:48:36;;;;;;;69.35;35.85;;;4.50;99.90;;;;;;5074955;28;20376;-73
2023/02/15 00:51:03;;;;;;;71.45;39.30;;;4.50;99.90;;;;;;5074819;28;20195;-74
2023/02/15 00:53:32;;;;;;;70.68;38.63;;;4.40;99.90;;;;;;5069852;28;20203;-75
2023/02/15 00:55:59;;;;;;;67.32;36.15;;;4.30;99.90;;;;;;5061631;28;20713;-74
2023/02/15 00:58:27;;;;;;;62.45;35.22;;;4.40;99.90;;;;;;5075438;28;20289;-73
2023/02/15 01:00:54;;;;;;;68.40;34.67;;;4.30;99.90;;;;;;5063199;28;20287;-72
2023/02/15 01:03:38;;;;;;;88.32;39.67;;;4.30;99.90;;;;;;5071569;28;20249;-74
2023/02/15 01:06:05;;;;;;;70.30;33.55;;;4.30;99.90;;;;;;5075083;28;20714;-75
2023/02/15 01:08:33;;;;;;;78.75;37.78;;;4.40;99.90;;;;;;5070176;28;20292;-73
2023/02/15 01:11:04;;;;;;;222.40;49.25;;;4.30;99.90;;;;;;5068365;28;20199;-75
2023/02/15 01:13:43;;;;;;;153.30;41.30;;;4.20;99.90;;;;;;5065511;28;20195;-73
2023/02/15 01:16:10;;;;;;;230.45;54.65;;;4.20;99.90;;;;;;5071972;28;20300;-73
2023/02/15 01:19:14;;;;;;;126.35;37.30;;;4.10;99.90;;;;;;5064483;28;20715;-73
2023/02/15 01:21:41;;;;;;;55.65;32.45;;;4.10;99.90;;;;;;5068995;28;20285;-74
2023/02/15 01:24:25;;;;;;;59.75;32.13;;;4.10;99.90;;;;;;5062734;28;20281;-73
2023/02/15 01:26:52;;;;;;;68.00;33.45;;;4.10;99.90;;;;;;5065084;28;20254;-73
2023/02/15 01:29:48;;;;;;;149.93;42.15;;;4.00;99.90;;;;;;5068747;28;20214;-73
2023/02/15 01:32:15;;;;;;;142.80;42.53;;;3.90;99.90;;;;;;5061003;28;20195;-74
2023/02/15 01:34:54;;;;;;;133.23;41.67;;;3.80;99.90;;;;;;5073895;28;20281;-75
2023/02/15 01:37:21;;;;;;;139.60;42.33;;;3.70;99.90;;;;;;5076484;28;20215;-74
2023/02/15 01:39:54;;;;;;;211.43;49.78;;;3.60;99.90;;;;;;5084580;28;20688;-74
2023/02/15 01:42:22;;;;;;;86.63;33.40;;;3.60;99.90;;;;;;5085783;28;20191;-73
2023/02/15 01:45:22;;;;;;;122.60;37.70;;;3.60;99.90;;;;;;5088762;28;20256;-71
2023/02/15 01:51:22;;;;;;;101.10;40.15;;;3.30;99.90;;;;;;5075347;28;20225;-73
2023/02/15 01:53:51;;;;;;;55.33;29.42;;;3.20;99.90;;;;;;5063295;28;20202;-74
2023/02/15 01:56:38;;;;;;;42.67;28.80;;;3.30;99.90;;;;;;5075081;28;20258;-74
2023/02/15 01:59:10;;;;;;;79.10;34.75;;;3.30;99.90;;;;;;5075116;28;20194;-73
2023/02/15 02:01:58;;;;;;;68.45;33.08;;;3.20;99.90;;;;;;5066248;28;20631;-74
2023/02/15 02:04:34;;;;;;;54.63;30.38;;;3.20;99.90;;;;;;5069228;28;20217;-74
2023/02/15 02:07:01;;;;;;;77.15;32.03;;;3.20;99.90;;;;;;5065755;28;20660;-74
2023/02/15 02:09:28;;;;;;;57.72;30.10;;;3.10;99.90;;;;;;5062665;28;20289;-73
2023/02/15 02:11:56;;;;;;;104.00;35.55;;;3.10;99.90;;;;;;5068259;28;20202;-73
2023/02/15 02:14:24;;;;;;;67.20;31.38;;;3.00;99.90;;;;;;5073191;28;20238;-74
2023/02/15 02:16:59;;;;;;;66.80;33.50;;;3.00;99.90;;;;;;5069103;28;20273;-72
2023/02/15 02:20:06;;;;;;;67.55;30.08;;;2.90;99.90;;;;;;5064231;28;20638;-72
2023/02/15 02:23:02;;;;;;;84.70;34.20;;;2.90;99.90;;;;;;5066972;28;20282;-73
2023/02/15 02:25:53;;;;;;;80.80;32.15;;;2.90;99.90;;;;;;5063627;28;20314;-73
2023/02/15 02:28:39;;;;;;;79.53;29.05;;;2.80;99.90;;;;;;5061485;28;20305;-74
2023/02/15 02:31:29;;;;;;;107.82;32.88;;;2.80;99.90;;;;;;5070545;28;20286;-74
2023/02/15 02:34:04;;;;;;;126.80;34.10;;;2.70;99.90;;;;;;5068518;28;20269;-73
2023/02/15 02:36:41;;;;;;;147.43;36.47;;;2.70;99.90;;;;;;5057699;28;20226;-75
2023/02/15 02:39:20;;;;;;;102.15;33.22;;;2.50;99.90;;;;;;5068689;28;20206;-74
2023/02/15 02:41:55;;;;;;;71.65;30.95;;;2.50;99.90;;;;;;5058661;28;20290;-75
2023/02/15 02:44:26;;;;;;;50.83;30.10;;;2.60;99.90;;;;;;5069323;28;20246;-75
2023/02/15 02:46:57;;;;;;;82.15;33.13;;;2.60;99.90;;;;;;5066189;28;20230;-73
2023/02/15 02:49:33;;;;;;;75.82;33.47;;;2.60;99.90;;;;;;5063887;28;20207;-73
2023/02/15 02:52:01;;;;;;;49.65;28.98;;;2.50;99.90;;;;;;5069724;28;20209;-74
2023/02/15 02:54:29;;;;;;;53.90;29.63;;;2.50;99.90;;;;;;5068309;28;20209;-74
2023/02/15 02:57:00;;;;;;;53.25;27.40;;;2.40;99.90;;;;;;5069812;28;20219;-73
2023/02/15 02:59:31;;;;;;;53.88;27.38;;;2.40;99.90;;;;;;5072797;28;20268;-74
2023/02/15 03:02:05;;;;;;;50.20;28.17;;;2.40;99.90;;;;;;5068788;28;20234;-73
2023/02/15 03:04:37;;;;;;;49.78;29.58;;;2.40;99.90;;;;;;5072467;28;20214;-74
2023/02/15 03:07:08;;;;;;;55.50;29.63;;;2.40;99.90;;;;;;5069649;28;20315;-74
2023/02/15 03:09:42;;;;;;;45.67;26.83;;;2.30;99.90;;;;;;5064305;28;20229;-73
2023/02/15 03:12:11;;;;;;;62.90;32.40;;;2.30;99.90;;;;;;5067515;28;20212;-76
2023/02/15 03:14:53;;;;;;;70.68;32.40;;;2.20;99.90;;;;;;5063502;28;20202;-74
2023/02/15 03:17:22;;;;;;;59.08;30.13;;;2.20;99.90;;;;;;5075596;28;20203;-74
2023/02/15 03:19:52;;;;;;;69.95;31.85;;;2.30;99.90;;;;;;5055551;28;20279;-74
2023/02/15 03:22:25;;;;;;;76.80;33.08;;;2.30;99.90;;;;;;5061777;28;20201;-75
2023/02/15 03:24:57;;;;;;;44.03;25.77;;;2.10;99.90;;;;;;5067670;28;20653;-73
2023/02/15 03:27:28;;;;;;;53.30;29.98;;;2.30;99.90;;;;;;5069541;28;20763;-74
2023/02/15 03:29:58;;;;;;;60.47;33.22;;;2.20;99.90;;;;;;5061081;28;20207;-72
2023/02/15 03:32:28;;;;;;;50.63;30.05;;;2.20;99.90;;;;;;5055792;28;20615;-73
2023/02/15 03:34:57;;;;;;;56.92;31.85;;;2.10;99.90;;;;;;5056771;28;20235;-73
2023/02/15 03:37:29;;;;;;;43.78;27.30;;;2.10;99.90;;;;;;5070628;28;20234;-73
2023/02/15 03:41:08;;;;;;;78.57;31.75;;;2.00;99.90;;;;;;5066687;28;20246;-75
2023/02/15 03:42:52;;;;;;;57.33;29.40;;;2.00;99.90;;;;;;5067214;28;20211;-72
2023/02/15 03:45:25;;;;;;;53.42;28.27;;;2.00;99.90;;;;;;5056426;28;20646;-74
2023/02/15 03:47:56;;;;;;;60.47;27.83;;;2.00;99.90;;;;;;5062885;28;20228;-74
2023/02/15 03:53:17;;;;;;;41.60;26.55;;;1.90;99.90;;;;;;5049650;28;20282;-74
2023/02/15 03:55:47;;;;;;;71.00;30.27;;;1.90;99.90;;;;;;5066240;28;20246;-73
2023/02/15 04:03:54;;;;;;;57.30;27.60;;;1.60;99.90;;;;;;5071886;28;20681;-74
2023/02/15 04:06:23;;;;;;;68.22;29.00;;;1.60;99.90;;;;;;5073184;28;20416;-72
2023/02/15 04:11:34;;;;;;;55.92;29.05;;;1.60;99.90;;;;;;5066414;28;20225;-74
2023/02/15 04:16:02;;;;;;;40.05;24.02;;;1.60;99.90;;;;;;5068711;28;20203;-70
2023/02/15 04:16:47;;;;;;;52.88;27.35;;;1.60;99.90;;;;;;5072077;28;20230;-74
2023/02/15 04:27:28;;;;;;;50.15;27.10;;;1.70;99.90;;;;;;5062441;28;20265;-72
2023/02/15 04:29:55;;;;;;;50.53;26.10;;;1.70;99.90;;;;;;5062678;28;20242;-74
2023/02/15 04:32:23;;;;;;;53.47;25.65;;;1.70;99.90;;;;;;5060492;28;20215;-73
2023/02/15 04:34:49;;;;;;;62.72;30.85;;;1.70;99.90;;;;;;5062085;28;20287;-72
2023/02/15 04:37:18;;;;;;;39.08;23.88;;;1.70;99.90;;;;;;5063971;28;20310;-73
2023/02/15 04:39:44;;;;;;;64.97;27.23;;;1.80;99.90;;;;;;5065798;28;20290;-73
2023/02/15 04:42:11;;;;;;;68.43;27.25;;;1.80;99.90;;;;;;5060278;28;20238;-74
2023/02/15 04:44:38;;;;;;;64.57;28.38;;;1.70;99.90;;;;;;5067762;28;20232;-73
2023/02/15 04:47:05;;;;;;;46.60;25.48;;;1.70;99.90;;;;;;5065133;28;20308;-73
2023/02/15 04:49:32;;;;;;;49.83;28.50;;;1.60;99.90;;;;;;5058548;28;20559;-72
2023/02/15 04:51:59;;;;;;;52.55;26.95;;;1.70;99.90;;;;;;5059512;28;20238;-73
2023/02/15 04:54:27;;;;;;;67.95;28.42;;;1.60;99.90;;;;;;5059426;28;20234;-72
2023/02/15 04:56:54;;;;;;;50.25;29.33;;;1.60;99.90;;;;;;5072204;28;20305;-73
2023/02/15 04:59:21;;;;;;;66.20;28.75;;;1.60;99.90;;;;;;5060472;28;20282;-74
2023/02/15 05:01:48;;;;;;;45.72;26.92;;;1.50;99.90;;;;;;5060322;28;20299;-73
2023/02/15 05:04:15;;;;;;;82.22;30.42;;;1.50;99.90;;;;;;5062790;28;20288;-75
2023/02/15 05:06:42;;;;;;;72.30;33.53;;;1.60;99.90;;;;;;5057099;28;20223;-73
2023/02/15 05:09:09;;;;;;;43.42;24.95;;;1.50;99.90;;;;;;5071714;28;20224;-73
2023/02/15 05:11:37;;;;;;;45.55;27.67;;;1.60;99.90;;;;;;5061867;28;20662;-74
2023/02/15 05:14:04;;;;;;;61.67;28.55;;;1.60;99.90;;;;;;5055834;28;20245;-74
2023/02/15 05:16:31;;;;;;;46.55;25.95;;;1.60;99.90;;;;;;5057205;28;20223;-73
2023/02/15 05:18:58;;;;;;;50.50;27.63;;;1.60;99.90;;;;;;5067625;28;20274;-73
2023/02/15 05:21:26;;;;;;;50.50;26.67;;;1.60;99.90;;;;;;5057300;28;20213;-72
2023/02/15 05:23:52;;;;;;;47.80;28.58;;;1.60;99.90;;;;;;5060926;28;20665;-73
2023/02/15 05:29:07;;;;;;;49.55;28.15;;;1.70;99.90;;;;;;5060736;28;20332;-73
2023/02/15 05:31:35;;;;;;;41.10;26.27;;;1.60;99.90;;;;;;5058524;28;20209;-74
2023/02/15 05:34:02;;;;;;;41.20;25.77;;;1.70;99.90;;;;;;5062560;28;20666;-73
2023/02/15 05:36:29;;;;;;;58.22;29.08;;;1.80;99.90;;;;;;5072874;28;20223;-73
2023/02/15 05:38:56;;;;;;;56.03;27.92;;;1.70;99.90;;;;;;5068006;28;20192;-74
2023/02/15 05:41:23;;;;;;;42.17;24.83;;;1.60;99.90;;;;;;5064293;28;20254;-73
2023/02/15 05:43:50;;;;;;;47.88;25.42;;;1.50;99.90;;;;;;5066914;28;20532;-73
2023/02/15 05:46:19;;;;;;;42.15;24.65;;;1.50;99.90;;;;;;5064731;28;20777;-72
2023/02/15 05:48:46;;;;;;;38.38;22.90;;;1.40;99.90;;;;;;5064154;28;20702;-76
2023/02/15 05:51:15;;;;;;;36.40;24.63;;;1.40;99.90;;;;;;5065125;28;20627;-73
2023/02/15 05:53:42;;;;;;;34.38;21.50;;;1.30;99.90;;;;;;5071187;28;20572;-73
2023/02/15 05:56:12;;;;;;;35.25;21.10;;;1.40;99.90;;;;;;5072844;28;20215;-75
2023/02/15 05:58:40;;;;;;;33.45;22.60;;;1.40;99.90;;;;;;5071136;28;20208;-74
2023/02/15 06:01:13;;;;;;;32.15;21.92;;;1.30;99.90;;;;;;5066082;28;20258;-73
2023/02/15 06:03:41;;;;;;;33.50;22.35;;;1.40;99.90;;;;;;5065452;28;20293;-73
2023/02/15 06:06:08;;;;;;;29.33;20.95;;;1.40;99.90;;;;;;5067600;28;20223;-71
2023/02/15 06:08:37;;;;;;;35.15;22.70;;;1.30;99.90;;;;;;5066105;28;20223;-73
2023/02/15 06:11:04;;;;;;;37.17;23.17;;;1.40;99.90;;;;;;5069636;28;20253;-74
2023/02/15 06:13:32;;;;;;;35.10;23.10;;;1.40;99.90;;;;;;5068039;28;20263;-74
2023/02/15 06:15:59;;;;;;;31.58;20.42;;;1.40;99.90;;;;;;5059953;28;20255;-73
2023/02/15 06:18:26;;;;;;;31.58;20.17;;;1.40;99.90;;;;;;5065085;28;20631;-75
2023/02/15 06:20:54;;;;;;;32.75;21.45;;;1.40;99.90;;;;;;5066560;28;20222;-76
2023/02/15 06:23:21;;;;;;;39.53;24.25;;;1.30;99.90;;;;;;5070793;28;20277;-72
2023/02/15 06:25:48;;;;;;;35.72;22.33;;;1.20;99.90;;;;;;5063870;28;20315;-73
2023/02/15 06:28:15;;;;;;;35.80;23.63;;;1.30;99.90;;;;;;5066815;28;20258;-76
2023/02/15 06:30:42;;;;;;;28.70;21.25;;;1.30;99.90;;;;;;5065059;28;20650;-73
2023/02/15 06:33:09;;;;;;;30.23;20.80;;;1.30;99.90;;;;;;5066310;28;20282;-73
2023/02/15 06:35:35;;;;;;;31.80;21.48;;;1.20;99.90;;;;;;5068755;28;20233;-74
2023/02/15 06:38:04;;;;;;;28.70;18.70;;;1.10;99.90;;;;;;5061395;28;20199;-73
2023/02/15 06:40:31;;;;;;;28.67;19.33;;;1.20;99.90;;;;;;5068398;28;20234;-74
2023/02/15 06:42:58;;;;;;;27.17;19.48;;;1.20;99.90;;;;;;5066006;28;20249;-73
2023/02/15 06:45:25;;;;;;;22.67;17.60;;;1.30;99.90;;;;;;5072630;28;20713;-74
2023/02/15 06:47:52;;;;;;;27.80;19.73;;;1.40;99.90;;;;;;5066940;28;20222;-73
2023/02/15 06:50:19;;;;;;;26.17;19.30;;;1.40;99.90;;;;;;5066145;28;20205;-74
2023/02/15 06:52:46;;;;;;;28.05;20.00;;;1.30;99.90;;;;;;5069536;28;20296;-74
2023/02/15 06:55:14;;;;;;;26.25;18.27;;;1.30;99.90;;;;;;5072894;28;20275;-74
2023/02/15 06:57:41;;;;;;;27.08;19.10;;;1.30;99.90;;;;;;5057795;28;20251;-73
2023/02/15 07:00:10;;;;;;;26.38;18.42;;;1.30;99.90;;;;;;5072175;28;20557;-75
2023/02/15 07:02:37;;;;;;;31.05;20.80;;;1.30;99.90;;;;;;5064516;28;20203;-72
2023/02/15 07:05:04;;;;;;;30.38;21.15;;;1.30;99.90;;;;;;5065852;28;20203;-73
2023/02/15 07:07:31;;;;;;;33.80;22.60;;;1.20;99.90;;;;;;5071909;28;20306;-74
2023/02/15 07:09:58;;;;;;;31.83;20.05;;;1.30;99.90;;;;;;5072678;28;20613;-73
2023/02/15 07:15:16;;;;;;;32.25;20.55;;;1.40;99.90;;;;;;5060393;28;21606;-74
2023/02/15 07:17:44;;;;;;;25.35;19.20;;;1.40;99.90;;;;;;5063688;28;20224;-73
2023/02/15 07:20:15;;;;;;;24.23;18.85;;;1.50;99.90;;;;;;5062132;28;20227;-73
2023/02/15 07:22:42;;;;;;;25.30;18.67;;;1.70;99.90;;;;;;5071222;28;20219;-73
2023/02/15 07:25:11;;;;;;;24.10;18.35;;;2.10;99.90;;;;;;5069032;28;20662;-74
2023/02/15 07:27:40;;;;;;;17.23;14.80;;;2.30;99.90;;;;;;5068190;28;20242;-74
2023/02/15 07:30:09;;;;;;;20.38;13.93;;;2.80;99.90;;;;;;5062650;28;20689;-74
2023/02/15 07:32:36;;;;;;;16.95;13.52;;;2.90;99.90;;;;;;5069732;28;20207;-73
2023/02/15 07:35:03;;;;;;;14.20;12.73;;;3.10;99.90;;;;;;5070173;28;20203;-75
2023/02/15 07:37:30;;;;;;;15.80;13.75;;;3.60;99.90;;;;;;5072184;28;20217;-74
2023/02/15 07:39:57;;;;;;;17.92;10.82;;;4.20;99.90;;;;;;5061331;28;20203;-74
2023/02/15 07:42:24;;;;;;;10.73;9.60;;;4.70;99.90;;;;;;5062788;28;20232;-75
2023/02/15 07:44:53;;;;;;;10.48;9.13;;;5.40;99.90;;;;;;5060713;28;20284;-75
2023/02/15 07:47:20;;;;;;;11.50;9.88;;;6.00;99.90;;;;;;5060460;28;20207;-73
2023/02/15 07:49:49;;;;;;;13.57;10.57;;;6.10;99.90;;;;;;5066736;28;20259;-74
2023/02/15 07:52:16;;;;;;;13.10;10.10;;;6.30;99.90;;;;;;5071844;28;20201;-74
2023/02/15 07:54:43;;;;;;;11.45;10.20;;;6.60;99.90;;;;;;5069141;28;20342;-74
2023/02/15 07:57:09;;;;;;;11.52;9.45;;;6.50;99.90;;;;;;5071484;28;20772;-74
2023/02/15 07:59:36;;;;;;;9.98;8.43;;;6.70;99.90;;;;;;5066786;28;20285;-73
2023/02/15 08:02:09;;;;;;;9.85;8.82;;;7.10;99.90;;;;;;5064710;28;20199;-74
2023/02/15 08:04:36;;;;;;;10.27;8.73;;;7.50;99.90;;;;;;5069732;28;20233;-73
2023/02/15 08:07:04;;;;;;;13.88;10.50;;;7.60;99.90;;;;;;5072200;28;20219;-75
2023/02/15 08:09:34;;;;;;;12.57;9.85;;;7.50;99.90;;;;;;5065136;28;20214;-74
2023/02/15 08:12:02;;;;;;;14.77;11.30;;;7.40;99.90;;;;;;5068296;28;20661;-74
2023/02/15 08:14:29;;;;;;;13.48;10.65;;;7.60;99.90;;;;;;5067796;28;20214;-73
2023/02/15 08:16:56;;;;;;;13.00;8.65;;;8.40;99.90;;;;;;5071849;28;20329;-74
2023/02/15 08:19:27;;;;;;;11.90;9.52;;;8.90;99.90;;;;;;5064139;28;20291;-74
2023/02/15 08:21:56;;;;;;;11.52;10.25;;;8.90;99.90;;;;;;5065340;28;20207;-74
2023/02/15 08:24:27;;;;;;;10.93;9.77;;;9.20;99.90;;;;;;5067983;28;20209;-74
2023/02/15 08:26:54;;;;;;;11.70;9.27;;;9.60;99.90;;;;;;5062585;28;20694;-74
2023/02/15 08:29:23;;;;;;;13.25;9.75;;;9.70;99.90;;;;;;5062380;28;20253;-74
2023/02/15 08:31:53;;;;;;;11.70;10.30;;;10.10;99.70;;;;;;5066812;28;20241;-76
2023/02/15 08:34:21;;;;;;;11.65;10.13;;;10.50;98.70;;;;;;5064906;28;20241;-73
2023/02/15 08:36:49;;;;;;;10.48;9.05;;;11.10;97.20;;;;;;5070202;28;20257;-73
2023/02/15 08:39:16;;;;;;;11.73;10.48;;;11.40;95.90;;;;;;5066739;28;20199;-74
2023/02/15 08:41:45;;;;;;;11.80;9.55;;;11.10;94.80;;;;;;5068254;28;20199;-74
2023/02/15 08:44:12;;;;;;;11.82;10.50;;;11.00;95.00;;;;;;5073359;28;20293;-74
2023/02/15 08:46:41;;;;;;;14.23;11.98;;;11.30;94.90;;;;;;5064379;28;20569;-74
2023/02/15 08:49:08;;;;;;;14.13;11.00;;;11.60;94.70;;;;;;5072146;28;20251;-74
2023/02/15 08:51:37;;;;;;;15.70;10.95;;;11.70;94.70;;;;;;5058288;28;20613;-75
2023/02/15 08:54:07;;;;;;;12.60;11.07;;;12.00;94.50;;;;;;5068664;28;20195;-74
2023/02/15 08:56:36;;;;;;;13.90;11.77;;;12.50;93.90;;;;;;5062098;28;20263;-75
2023/02/15 08:59:04;;;;;;;16.85;13.15;;;12.40;93.50;;;;;;5063563;28;20194;-75
2023/02/15 09:01:33;;;;;;;15.07;12.90;;;12.60;93.20;;;;;;5071193;28;20230;-76
2023/02/15 09:04:03;;;;;;;14.73;11.82;;;12.50;93.40;;;;;;5062633;28;20243;-74
2023/02/15 09:06:31;;;;;;;20.17;13.60;;;12.70;93.60;;;;;;5065385;28;20242;-75
2023/02/15 09:08:58;;;;;;;16.88;12.88;;;13.00;93.00;;;;;;5067415;28;20301;-74
2023/02/15 09:11:28;;;;;;;14.55;12.20;;;13.10;92.90;;;;;;5073652;28;20250;-73
2023/02/15 09:13:56;;;;;;;19.23;13.60;;;13.50;92.30;;;;;;5062913;28;20282;-74
2023/02/15 09:16:26;;;;;;;15.52;13.45;;;13.50;92.40;;;;;;5065241;28;20336;-73
2023/02/15 09:18:53;;;;;;;16.95;14.43;;;13.40;91.70;;;;;;5062907;28;20214;-74
2023/02/15 09:21:21;;;;;;;16.40;14.20;;;13.20;92.10;;;;;;5063908;28;20206;-74
2023/02/15 09:23:49;;;;;;;17.67;15.77;;;13.00;92.20;;;;;;5072492;28;20222;-73
2023/02/15 09:26:18;;;;;;;19.52;14.57;;;12.40;92.70;;;;;;5074226;28;20225;-73
2023/02/15 09:28:48;;;;;;;15.15;12.35;;;12.10;93.80;;;;;;5059974;28;20218;-73
2023/02/15 09:31:17;;;;;;;14.02;11.93;;;11.90;94.10;;;;;;5064326;28;20206;-74
2023/02/15 09:33:46;;;;;;;18.45;14.18;;;11.80;95.00;;;;;;5064329;28;20279;-74
2023/02/15 09:36:21;;;;;;;14.88;13.27;;;12.10;94.60;;;;;;5057280;28;20225;-73
2023/02/15 09:38:53;;;;;;;16.02;13.35;;;12.40;97.00;;;;;;5067863;28;20573;-73
2023/02/15 09:42:01;;;;;;;13.77;12.27;;;12.80;96.60;;;;;;5061858;28;20203;-74
2023/02/15 09:44:44;;;;;;;15.93;13.48;;;13.20;94.80;;;;;;5064088;28;20203;-75
2023/02/15 09:47:31;;;;;;;14.70;12.75;;;13.40;94.30;;;;;;5059313;28;20230;-74
2023/02/15 09:50:06;;;;;;;15.82;12.88;;;13.50;94.50;;;;;;5062765;28;20238;-74
2023/02/15 09:52:48;;;;;;;15.00;13.18;;;13.60;93.80;;;;;;5059056;28;20290;-73
2023/02/15 09:55:34;;;;;;;17.80;14.45;;;13.50;93.90;;;;;;5057031;28;20280;-74
2023/02/15 09:58:13;;;;;;;17.10;12.20;;;13.60;93.50;;;;;;5059900;28;20298;-74
2023/02/15 10:00:50;;;;;;;19.63;14.75;;;13.70;93.60;;;;;;5065639;28;20247;-75
2023/02/15 10:03:49;;;;;;;16.25;14.23;;;13.70;93.50;;;;;;5059486;28;20235;-75
2023/02/15 10:06:41;;;;;;;21.27;15.07;;;14.00;93.30;;;;;;5025073;28;20233;-73
2023/02/15 10:09:24;;;;;;;23.13;15.45;;;14.10;93.20;;;;;;5060172;28;20228;-74
2023/02/15 10:12:08;;;;;;;21.35;15.32;;;14.10;93.30;;;;;;5067388;28;20213;-75
2023/02/15 10:14:57;;;;;;;19.42;16.52;;;14.50;93.10;;;;;;5066501;28;20217;-74
2023/02/15 10:17:42;;;;;;;21.55;17.65;;;14.30;92.50;;;;;;5063750;28;20290;-74
2023/02/15 10:20:25;;;;;;;24.90;17.08;;;14.20;92.90;;;;;;5071319;28;20206;-75
2023/02/15 10:23:09;;;;;;;21.90;18.40;;;14.30;93.10;;;;;;5058668;28;20693;-73
2023/02/15 10:25:45;;;;;;;22.88;18.55;;;13.80;93.30;;;;;;5064370;28;20311;-74
2023/02/15 10:28:18;;;;;;;19.65;16.98;;;13.70;93.90;;;;;;5061289;28;20196;-74
2023/02/15 10:30:50;;;;;;;22.95;18.85;;;13.60;93.90;;;;;;5061022;28;20230;-74
2023/02/15 10:33:37;;;;;;;25.67;18.33;;;13.50;94.30;;;;;;5064805;28;20290;-74
2023/02/15 10:36:17;;;;;;;28.27;20.33;;;13.20;93.90;;;;;;5058251;28;20658;-74
2023/02/15 10:38:51;;;;;;;28.00;20.55;;;13.00;94.50;;;;;;5055978;28;20721;-75
2023/02/15 10:41:28;;;;;;;23.88;19.58;;;13.30;94.90;;;;;;5057601;28;20206;-75
2023/02/15 10:44:14;;;;;;;23.40;18.83;;;13.20;94.40;;;;;;5061597;28;20195;-75
2023/02/15 10:47:07;;;;;;;22.02;18.33;;;13.20;94.70;;;;;;5056638;28;20220;-74
2023/02/15 10:49:49;;;;;;;26.40;18.65;;;13.30;95.00;;;;;;5063004;28;20211;-72
2023/02/15 10:52:30;;;;;;;26.77;21.95;;;12.90;95.20;;;;;;5055717;28;20622;-74
2023/02/15 10:55:06;;;;;;;28.52;20.77;;;12.80;95.60;;;;;;5059810;28;20201;-75
2023/02/15 10:57:42;;;;;;;27.88;20.33;;;12.40;96.20;;;;;;5057947;28;20246;-73
2023/02/15 11:00:17;;;;;;;28.40;22.55;;;12.30;96.80;;;;;;5067267;28;20217;-74
2023/02/15 11:02:59;;;;;;;22.73;18.60;;;11.90;97.60;;;;;;5063144;28;20276;-76
2023/02/15 11:05:36;;;;;;;28.42;20.48;;;11.70;98.40;;;;;;5057602;28;20264;-75
2023/02/15 11:08:07;;;;;;;27.88;21.33;;;11.60;98.30;;;;;;5067132;28;20200;-75
2023/02/15 11:10:40;;;;;;;26.45;21.15;;;11.40;98.90;;;;;;5064238;28;20767;-76
2023/02/15 11:13:11;;;;;;;26.83;20.60;;;11.40;99.90;;;;;;5065499;28;20549;-79
2023/02/15 11:15:44;;;;;;;27.23;21.52;;;11.50;99.60;;;;;;5070344;28;20234;-74
2023/02/15 11:18:18;;;;;;;35.78;21.55;;;11.50;99.90;;;;;;5070037;28;20255;-76
2023/02/15 11:20:54;;;;;;;29.63;20.90;;;11.40;99.90;;;;;;5056204;28;20258;-76
2023/02/15 11:23:23;;;;;;;31.58;22.55;;;11.20;99.90;;;;;;5056576;28;20226;-76
2023/02/15 11:25:57;;;;;;;25.73;22.40;;;11.20;99.90;;;;;;5059187;28;20220;-76
2023/02/15 11:28:28;;;;;;;37.40;24.45;;;11.10;99.90;;;;;;5060759;28;20247;-78
2023/02/15 11:30:57;;;;;;;28.25;23.08;;;10.90;99.90;;;;;;5062359;28;20231;-77
2023/02/15 11:33:29;;;;;;;30.95;22.77;;;10.90;99.90;;;;;;5062404;28;20211;-73
2023/02/15 11:36:02;;;;;;;32.00;23.52;;;11.00;99.90;;;;;;5058999;28;20279;-74
2023/02/15 11:38:32;;;;;;;29.05;23.33;;;11.10;99.90;;;;;;5055968;28;20196;-75
2023/02/15 11:41:04;;;;;;;35.58;26.92;;;10.90;99.90;;;;;;5058363;28;20199;-74
2023/02/15 11:43:36;;;;;;;30.92;22.10;;;11.00;99.90;;;;;;5062481;28;20289;-73
2023/02/15 11:46:03;;;;;;;30.75;23.30;;;11.10;99.90;;;;;;5061712;28;20588;-73
2023/02/15 11:48:32;;;;;;;30.20;22.08;;;11.30;99.90;;;;;;5060728;28;20307;-74
2023/02/15 11:51:03;;;;;;;25.15;20.15;;;11.30;99.90;;;;;;5058402;28;20641;-75
2023/02/15 11:53:33;;;;;;;27.88;23.30;;;11.60;99.90;;;;;;5061887;28;20244;-76
2023/02/15 11:56:01;;;;;;;28.50;24.05;;;11.50;99.90;;;;;;5059272;28;20221;-72
2023/02/15 11:58:34;;;;;;;31.50;23.05;;;11.40;99.90;;;;;;5067328;28;20570;-75
2023/02/15 12:01:11;;;;;;;30.08;24.80;;;11.10;99.90;;;;;;5074395;28;20199;-74
2023/02/15 12:03:46;;;;;;;27.88;22.60;;;10.90;99.90;;;;;;5066052;28;20205;-74
2023/02/15 12:06:19;;;;;;;31.65;23.55;;;10.80;99.90;;;;;;5061450;28;20225;-74
2023/02/15 12:08:54;;;;;;;32.45;23.45;;;10.80;99.90;;;;;;5061947;28;20234;-72
2023/02/15 12:11:26;;;;;;;28.27;21.35;;;10.80;99.90;;;;;;5061243;28;20653;-75
2023/02/15 12:13:58;;;;;;;29.42;22.95;;;11.10;99.90;;;;;;5065240;28;20230;-75
2023/02/15 12:16:26;;;;;;;34.00;23.38;;;11.20;99.90;;;;;;5061991;28;20223;-73
2023/02/15 12:18:57;;;;;;;31.23;24.40;;;11.20;99.90;;;;;;5076547;28;20200;-73
2023/02/15 12:21:32;;;;;;;30.80;23.02;;;11.30;99.90;;;;;;5064609;28;20229;-74
2023/02/15 12:24:04;;;;;;;31.13;23.67;;;11.10;99.90;;;;;;5070424;28;20652;-75
2023/02/15 12:26:34;;;;;;;26.77;21.90;;;11.20;99.90;;;;;;5073867;28;20231;-74
2023/02/15 12:29:13;;;;;;;26.35;20.80;;;11.10;99.90;;;;;;5081195;28;20236;-77
2023/02/15 12:31:43;;;;;;;29.67;22.50;;;11.30;99.90;;;;;;5074254;28;20281;-74
2023/02/15 12:34:15;;;;;;;29.83;24.40;;;11.40;99.90;;;;;;5067265;28;20255;-72
2023/02/15 12:36:50;;;;;;;32.97;22.25;;;11.50;99.90;;;;;;5069045;28;20233;-72
2023/02/15 12:39:21;;;;;;;33.80;24.48;;;11.60;99.90;;;;;;5071735;28;20208;-75
2023/02/15 12:42:14;;;;;;;32.47;23.70;;;11.40;99.90;;;;;;5075128;28;20234;-75
2023/02/15 12:44:56;;;;;;;30.27;23.60;;;11.30;99.90;;;;;;5065816;28;20220;-75
2023/02/15 12:47:27;;;;;;;33.20;26.42;;;11.20;99.90;;;;;;5068314;28;20233;-73
2023/02/15 12:50:17;;;;;;;32.28;25.25;;;11.30;99.90;;;;;;5063293;28;20222;-76
2023/02/15 12:52:48;;;;;;;30.50;23.45;;;11.30;99.90;;;;;;5071694;28;20549;-73
2023/02/15 12:55:24;;;;;;;32.97;24.75;;;11.50;99.90;;;;;;5067019;28;20303;-73
2023/02/15 12:58:07;;;;;;;37.78;27.65;;;11.50;99.90;;;;;;5070596;28;20210;-75
2023/02/15 13:00:34;;;;;;;40.25;27.00;;;11.50;99.90;;;;;;5065538;28;20559;-74
2023/02/15 13:03:02;;;;;;;37.45;29.70;;;11.60;99.90;;;;;;5061702;28;20202;-74
2023/02/15 13:05:34;;;;;;;41.33;29.48;;;11.60;99.90;;;;;;5061876;28;20248;-75
2023/02/15 13:08:09;;;;;;;35.45;27.45;;;11.70;99.90;;;;;;5063416;28;20283;-75
2023/02/15 13:10:38;;;;;;;38.15;28.92;;;11.70;99.90;;;;;;5072226;28;20225;-76
2023/02/15 13:13:11;;;;;;;39.47;28.35;;;11.70;99.90;;;;;;5074097;28;20196;-76
2023/02/15 13:15:42;;;;;;;36.55;26.70;;;11.80;99.90;;;;;;5068276;28;20275;-76
2023/02/15 13:18:15;;;;;;;38.25;27.88;;;11.90;99.90;;;;;;5061552;28;20222;-73
2023/02/15 13:20:45;;;;;;;37.10;28.50;;;12.10;99.90;;;;;;5056333;28;20241;-74
2023/02/15 13:23:27;;;;;;;38.15;28.58;;;12.20;99.90;;;;;;5070900;28;20206;-74
2023/02/15 13:25:56;;;;;;;37.00;29.80;;;11.90;99.90;;;;;;5056571;28;20681;-74